Time;durP1;ratioP1;P1;durP2;ratioP2;P2;SDS_P1;SDS_P2;PMS_P1;PMS_P2;Temp;Humidity;BMP_temperature;BMP_pressure;BME280_temperature;BME280_humidity;BME280_pressure;Samples;Min_cycle;Max_cycle;Signal;HPM_P1;HPM_P2
2023/02/16 00:00:27;;;;;;;19.40;8.90;;;;;;;-4.24;81.49;96894.35;106694;1275;25481;-66
2023/02/16 00:03:19;;;;;;;17.60;8.90;;;;;;;-4.24;81.70;96891.97;106605;1275;22576;-66
2023/02/16 00:05:48;;;;;;;17.90;8.40;;;;;;;-4.13;81.93;96892.92;106596;1275;23044;-66
2023/02/16 00:08:16;;;;;;;16.00;8.50;;;;;;;-4.12;81.35;96889.94;106718;1275;22547;-66
2023/02/16 00:13:43;;;;;;;13.90;7.20;;;;;;;-4.18;81.00;96894.39;106574;1275;25488;-66
2023/02/16 00:13:51;;;;;;;14.90;7.30;;;;;;;-4.28;81.02;96890.38;106706;1275;22631;-66
2023/02/16 00:16:22;;;;;;;18.80;9.20;;;;;;;-4.32;81.13;96892.15;106967;1275;22683;-67
2023/02/16 00:18:51;;;;;;;16.10;7.80;;;;;;;-4.32;81.76;96888.72;106766;1275;22523;-67
2023/02/16 00:21:20;;;;;;;13.00;6.60;;;;;;;-4.38;81.22;96889.95;106571;1275;26131;-67
2023/02/16 00:23:49;;;;;;;14.80;7.00;;;;;;;-4.47;81.09;96885.28;106697;1259;25403;-67
2023/02/16 00:26:20;;;;;;;17.80;8.30;;;;;;;-4.53;81.49;96886.81;106608;1275;22558;-66
2023/02/16 00:28:57;;;;;;;21.60;10.70;;;;;;;-4.51;81.77;96888.77;106687;1275;25334;-66
2023/02/16 00:31:30;;;;;;;15.30;8.20;;;;;;;-4.50;82.20;96880.98;106592;1275;22528;-67
2023/02/16 00:34:03;;;;;;;;;;;;;;;-4.46;81.96;96882.75;106770;1275;22501;-66
2023/02/16 00:36:32;;;;;;;13.60;6.60;;;;;;;-4.44;81.69;96879.27;106760;1275;22523;-67
2023/02/16 00:39:00;;;;;;;13.50;6.70;;;;;;;-4.45;81.61;96878.54;106717;1275;22544;-66
2023/02/16 00:44:37;;;;;;;11.20;6.10;;;;;;;-4.57;81.00;96879.20;106629;1275;22881;-66
2023/02/16 00:47:32;;;;;;;9.00;4.20;;;;;;;-4.64;80.94;96876.90;106724;1275;24900;-67
2023/02/16 00:50:00;;;;;;;9.50;4.40;;;;;;;-4.77;80.60;96875.42;106585;1275;26231;-66
2023/02/16 00:52:28;;;;;;;10.30;4.80;;;;;;;-4.85;80.88;96874.04;106629;1275;22566;-66
2023/02/16 00:54:58;;;;;;;9.10;4.40;;;;;;;-4.88;80.97;96873.40;106672;1275;24384;-67
2023/02/16 00:57:31;;;;;;;8.40;4.40;;;;;;;-4.89;80.86;96871.23;106745;1275;25500;-66
2023/02/16 01:00:24;;;;;;;13.90;5.40;;;;;;;-4.96;81.05;96870.49;106729;1275;22683;-66
2023/02/16 01:02:55;;;;;;;13.50;6.70;;;;;;;-4.97;82.27;96868.34;106596;1275;23881;-66
2023/02/16 01:05:24;;;;;;;13.10;7.30;;;;;;;-5.01;82.21;96864.89;106594;1275;22678;-67
2023/02/16 01:13:28;;;;;;;13.10;5.70;;;;;;;-5.01;81.87;96866.05;106635;1275;22518;-66
2023/02/16 01:15:56;;;;;;;9.10;4.60;;;;;;;-5.03;81.62;96863.88;106642;1275;22520;-67
2023/02/16 01:18:25;;;;;;;8.10;4.30;;;;;;;-5.05;82.20;96864.48;106641;1275;25396;-66
2023/02/16 01:20:54;;;;;;;9.40;4.10;;;;;;;-5.14;81.75;96861.48;106580;1275;24253;-66
2023/02/16 01:23:22;;;;;;;10.70;4.80;;;;;;;-5.17;81.58;96858.05;106714;1275;22581;-66
2023/02/16 01:25:50;;;;;;;14.40;6.10;;;;;;;-5.13;81.69;96854.69;106612;1254;22530;-66
2023/02/16 01:28:21;;;;;;;10.70;5.30;;;;;;;-5.09;81.79;96853.90;106711;1275;25223;-66
2023/02/16 01:30:51;;;;;;;14.00;5.80;;;;;;;-5.08;81.73;96849.99;106634;1275;22792;-66
2023/02/16 01:33:20;;;;;;;9.30;5.00;;;;;;;-5.12;81.63;96849.92;106719;1275;22527;-66
2023/02/16 01:35:49;;;;;;;10.80;5.20;;;;;;;-5.09;81.78;96844.63;106662;1275;23281;-67
2023/02/16 01:38:21;;;;;;;10.50;5.00;;;;;;;-5.06;82.09;96847.25;106729;1275;24572;-66
2023/02/16 01:40:55;;;;;;;11.90;5.50;;;;;;;-4.97;82.40;96840.73;106712;1275;24230;-66
2023/02/16 01:43:29;;;;;;;11.70;5.10;;;;;;;-4.85;82.67;96841.15;106654;1275;25531;-67
2023/02/16 01:46:13;;;;;;;12.30;4.90;;;;;;;-4.74;82.51;96841.91;106705;1275;25306;-67
2023/02/16 01:48:42;;;;;;;12.00;5.40;;;;;;;-4.68;82.13;96840.55;106644;1265;24350;-66
2023/02/16 01:51:20;;;;;;;10.10;5.30;;;;;;;-4.63;82.28;96841.24;106699;1275;22581;-67
2023/02/16 01:54:04;;;;;;;11.10;4.80;;;;;;;-4.53;82.32;96838.89;106733;1275;25367;-66
2023/02/16 01:56:44;;;;;;;26.50;11.60;;;;;;;-4.61;81.06;96839.27;106673;1275;25323;-67
2023/02/16 01:59:23;;;;;;;19.20;8.30;;;;;;;-4.68;81.12;96839.53;106575;1275;22541;-66
2023/02/16 02:02:01;;;;;;;12.50;5.60;;;;;;;-4.74;80.88;96836.25;106731;1275;25421;-66
2023/02/16 02:07:40;;;;;;;8.20;4.30;;;;;;;-4.68;81.94;96830.66;106763;1275;22515;-66
2023/02/16 02:10:19;;;;;;;7.90;4.00;;;;;;;-4.61;81.62;96827.92;106534;1275;22517;-66
2023/02/16 02:13:16;;;;;;;7.10;3.70;;;;;;;-4.59;81.53;96826.39;106639;1275;25440;-66
2023/02/16 02:15:44;;;;;;;6.70;4.00;;;;;;;-4.71;80.70;96828.41;106534;1275;25396;-67
2023/02/16 02:18:12;;;;;;;14.40;4.10;;;;;;;-4.74;80.92;96822.91;106585;1275;23954;-66
2023/02/16 02:24:08;;;;;;;6.70;3.10;;;;;;;-4.92;80.74;96813.41;106921;1275;25395;-66
2023/02/16 02:27:15;;;;;;;7.20;3.70;;;;;;;-5.02;80.49;96816.91;106587;1275;23003;-66
2023/02/16 02:30:02;;;;;;;18.60;7.70;;;;;;;-5.18;80.37;96817.47;106710;1275;24355;-67
2023/02/16 02:32:34;;;;;;;19.90;8.00;;;;;;;-5.28;80.65;96817.10;106659;1275;22532;-67
2023/02/16 02:35:22;;;;;;;7.70;4.40;;;;;;;-5.36;81.43;96818.97;106594;1261;25596;-66
2023/02/16 02:38:03;;;;;;;6.30;3.40;;;;;;;-5.37;81.43;96816.85;106632;1275;22629;-66
2023/02/16 02:40:47;;;;;;;7.00;3.20;;;;;;;-5.32;81.54;96819.19;106778;1275;25376;-66
2023/02/16 02:43:21;;;;;;;7.40;3.30;;;;;;;-5.28;81.51;96819.27;106631;1275;25482;-67
2023/02/16 02:45:58;;;;;;;5.10;3.10;;;;;;;-5.27;81.40;96815.95;106633;1275;25518;-66
2023/02/16 02:48:31;;;;;;;2.50;1.50;;;;;;;-5.28;81.09;96814.83;106633;1275;22975;-66
2023/02/16 02:51:27;;;;;;;;;;;;;;;-5.36;81.10;96812.27;106734;1275;25126;-66
2023/02/16 03:00:42;;;;;;;4.40;2.60;;;;;;;-5.46;81.23;96816.48;106874;1275;25443;-66
2023/02/16 03:03:21;;;;;;;4.30;2.20;;;;;;;-5.50;81.40;96812.94;106596;1275;24230;-66
2023/02/16 03:05:59;;;;;;;3.50;2.20;;;;;;;-5.50;81.39;96810.05;106671;1275;24479;-66
2023/02/16 03:08:31;;;;;;;10.80;6.00;;;;;;;-5.51;81.28;96812.91;106632;1275;23100;-66
2023/02/16 03:13:59;;;;;;;4.70;1.90;;;;;;;-5.56;81.26;96808.45;106706;1275;25384;-66
2023/02/16 03:16:34;;;;;;;8.50;5.70;;;;;;;-5.56;81.41;96808.83;106215;1275;741141;-66
2023/02/16 03:30:23;;;;;;;4.10;2.40;;;;;;;-5.58;81.40;96803.17;106605;1275;25563;-66
2023/02/16 03:32:52;;;;;;;6.20;3.00;;;;;;;-5.51;81.70;96802.63;106572;1275;22769;-67
2023/02/16 03:35:21;;;;;;;7.60;3.80;;;;;;;-5.41;81.68;96797.55;106528;1275;22524;-67
2023/02/16 03:37:49;;;;;;;6.60;3.00;;;;;;;-5.34;81.80;96805.01;106650;1275;24218;-67
2023/02/16 03:40:27;;;;;;;4.90;2.60;;;;;;;-5.30;81.49;96801.34;106520;1275;24294;-66
2023/02/16 03:43:01;;;;;;;6.10;3.30;;;;;;;-5.30;81.41;96801.85;106715;1275;22587;-66
2023/02/16 03:45:33;;;;;;;6.00;2.70;;;;;;;-5.24;81.89;96803.23;106635;1275;24243;-66
2023/02/16 03:48:02;;;;;;;6.10;2.90;;;;;;;-5.32;81.04;96796.92;106787;1263;22737;-66
2023/02/16 03:50:30;;;;;;;15.40;9.50;;;;;;;-5.40;81.01;96802.73;106612;1275;25604;-66
2023/02/16 03:53:08;;;;;;;9.50;4.90;;;;;;;-5.42;81.25;96800.89;106666;1275;25521;-66
2023/02/16 03:55:43;;;;;;;12.80;6.50;;;;;;;-5.43;81.36;96799.34;106738;1275;22562;-66
2023/02/16 03:58:15;;;;;;;5.40;2.40;;;;;;;-5.44;81.44;96803.05;106721;1275;22517;-66
2023/02/16 04:00:43;;;;;;;8.20;2.40;;;;;;;-5.45;81.47;96804.88;106598;1275;22679;-67
2023/02/16 04:03:12;;;;;;;4.80;2.40;;;;;;;-5.47;81.34;96801.66;106724;1275;22515;-67
2023/02/16 04:05:41;;;;;;;2.10;1.70;;;;;;;-5.45;81.69;96794.27;106665;1275;22682;-67
2023/02/16 04:08:10;;;;;;;4.70;2.30;;;;;;;-5.44;81.66;96796.90;106576;1275;22532;-67
2023/02/16 04:10:38;;;;;;;3.40;1.90;;;;;;;-5.43;81.68;96795.88;106695;1275;23142;-67
2023/02/16 04:13:06;;;;;;;3.10;1.80;;;;;;;-5.43;81.91;96797.96;106618;1275;22510;-66
2023/02/16 04:15:35;;;;;;;3.60;2.00;;;;;;;-5.47;81.98;96795.54;106715;1270;22523;-66
2023/02/16 04:18:03;;;;;;;2.60;1.60;;;;;;;-5.42;82.22;96792.50;106747;1275;22805;-66
2023/02/16 04:20:34;;;;;;;4.10;2.50;;;;;;;-5.35;82.17;96787.67;106643;1265;25378;-66
2023/02/16 04:23:02;;;;;;;3.10;1.40;;;;;;;-5.33;81.94;96786.38;106577;1275;23915;-67
2023/02/16 04:25:31;;;;;;;3.50;1.60;;;;;;;-5.41;81.52;96780.27;106775;1275;25629;-67
2023/02/16 04:27:59;;;;;;;2.60;1.60;;;;;;;-5.44;81.65;96772.73;106708;1275;22690;-66
2023/02/16 04:30:29;;;;;;;3.40;1.70;;;;;;;-5.45;81.64;96774.21;106686;1275;24219;-66
2023/02/16 04:32:58;;;;;;;3.60;1.60;;;;;;;-5.46;81.60;96776.86;106787;1275;24324;-67
2023/02/16 04:35:26;;;;;;;3.30;1.70;;;;;;;-5.45;81.76;96772.80;106802;1275;25297;-67
2023/02/16 04:37:55;;;;;;;5.00;2.90;;;;;;;-5.51;81.54;96775.05;106646;1275;23887;-67
2023/02/16 04:40:24;;;;;;;11.00;5.80;;;;;;;-5.61;81.41;96775.23;106761;1275;25500;-67
2023/02/16 04:42:52;;;;;;;5.90;3.20;;;;;;;-5.71;81.46;96771.70;106608;1275;24185;-68
2023/02/16 04:45:20;;;;;;;2.40;1.30;;;;;;;-5.77;82.16;96773.23;106580;1272;22540;-66
2023/02/16 04:47:48;;;;;;;2.10;1.30;;;;;;;-5.77;81.96;96773.26;106581;1275;22781;-67
2023/02/16 04:50:16;;;;;;;3.20;1.50;;;;;;;-5.74;81.95;96770.35;106689;1263;22802;-67
2023/02/16 04:52:45;;;;;;;3.70;1.50;;;;;;;-5.75;81.69;96771.09;106740;1275;22747;-66
2023/02/16 04:55:13;;;;;;;3.70;1.20;;;;;;;-5.84;82.07;96767.30;106586;1275;25438;-66
2023/02/16 04:57:41;;;;;;;2.30;1.30;;;;;;;-5.89;81.86;96767.86;106703;1275;22523;-66
2023/02/16 05:00:10;;;;;;;2.20;1.20;;;;;;;-5.91;81.84;96767.58;106720;1275;22517;-66
2023/02/16 05:02:39;;;;;;;2.60;1.30;;;;;;;-5.94;81.79;96763.95;107040;1275;24257;-66
2023/02/16 05:05:08;;;;;;;2.80;1.50;;;;;;;-5.94;81.87;96767.59;106836;1275;24252;-66
2023/02/16 05:07:36;;;;;;;2.30;1.20;;;;;;;-5.91;82.16;96769.76;106710;1275;24252;-66
2023/02/16 05:10:06;;;;;;;3.00;1.20;;;;;;;-5.94;82.89;96765.68;106588;1275;25509;-66
2023/02/16 05:15:21;;;;;;;1.60;0.90;;;;;;;-5.97;82.29;96770.10;106666;1275;25528;-66
2023/02/16 05:17:49;;;;;;;1.90;1.00;;;;;;;-5.98;82.04;96766.79;106551;1275;25581;-67
2023/02/16 05:20:17;;;;;;;2.00;1.00;;;;;;;-5.98;81.97;96762.48;106591;1275;22746;-66
2023/02/16 05:22:46;;;;;;;2.20;0.70;;;;;;;-5.99;81.96;96759.52;106728;1275;22637;-66
2023/02/16 05:25:14;;;;;;;1.10;0.90;;;;;;;-6.03;82.21;96765.77;106647;1275;24227;-66
2023/02/16 05:27:42;;;;;;;5.70;1.80;;;;;;;-6.05;82.67;96765.52;106628;1275;22794;-66
2023/02/16 05:30:11;;;;;;;9.10;4.30;;;;;;;-6.03;82.87;96769.04;106702;1275;24440;-66
2023/02/16 05:32:39;;;;;;;4.40;2.10;;;;;;;-5.99;83.40;96768.80;106636;1275;22712;-66
2023/02/16 05:35:07;;;;;;;3.30;1.40;;;;;;;-5.98;82.77;96765.58;106726;1275;25638;-66
2023/02/16 05:37:35;;;;;;;3.30;1.70;;;;;;;-5.96;82.64;96770.85;106741;1275;24349;-66
2023/02/16 05:40:04;;;;;;;5.20;1.30;;;;;;;-5.89;83.43;96769.05;106770;1275;22513;-66
2023/02/16 05:42:32;;;;;;;3.50;1.50;;;;;;;-5.81;83.20;96767.83;106793;1275;24195;-66
2023/02/16 05:45:02;;;;;;;1.50;0.90;;;;;;;-5.71;83.32;96768.27;106727;1275;25586;-66
2023/02/16 05:47:30;;;;;;;14.00;6.00;;;;;;;-5.70;82.77;96767.16;106691;1275;24248;-66
2023/02/16 05:49:59;;;;;;;14.20;7.50;;;;;;;-5.71;82.35;96768.84;106684;1275;23928;-67
2023/02/16 05:52:27;;;;;;;16.30;8.60;;;;;;;-5.74;82.17;96768.98;106687;1275;22530;-67
2023/02/16 05:54:55;;;;;;;2.40;1.30;;;;;;;-5.68;82.76;96771.20;106578;1273;25759;-66
2023/02/16 05:57:23;;;;;;;2.80;1.00;;;;;;;-5.49;83.53;96770.18;106658;1275;23409;-67
2023/02/16 05:59:52;;;;;;;2.20;1.20;;;;;;;-5.33;83.17;96770.62;106591;1275;22523;-66
2023/02/16 06:02:20;;;;;;;1.60;0.80;;;;;;;-5.24;82.91;96772.55;106576;1275;22522;-66
2023/02/16 06:04:48;;;;;;;4.50;2.90;;;;;;;-5.22;82.18;96773.38;106642;1275;25592;-66
2023/02/16 06:07:16;;;;;;;5.60;2.70;;;;;;;-5.25;81.93;96779.53;106677;1275;22710;-66
2023/02/16 06:09:44;;;;;;;1.50;0.90;;;;;;;-5.21;81.95;96779.89;106714;1275;25515;-66
2023/02/16 06:12:13;;;;;;;3.60;1.00;;;;;;;-5.04;82.80;96781.45;106625;1275;22531;-66
2023/02/16 06:14:41;;;;;;;1.90;1.10;;;;;;;-4.88;82.57;96779.83;106693;1275;22628;-66
2023/02/16 06:17:09;;;;;;;8.20;4.00;;;;;;;-4.83;81.42;96783.09;106615;1275;25271;-66
2023/02/16 06:19:37;;;;;;;13.60;7.80;;;;;;;-4.88;80.87;96779.48;106681;1275;22760;-66
2023/02/16 06:22:05;;;;;;;19.90;12.20;;;;;;;-4.94;80.92;96779.66;106699;1253;22638;-66
2023/02/16 06:24:33;;;;;;;24.20;13.10;;;;;;;-4.95;80.74;96775.45;106610;1275;24495;-66
2023/02/16 06:27:03;;;;;;;21.00;12.00;;;;;;;-4.94;81.26;96776.92;106757;1275;22527;-66
2023/02/16 06:29:31;;;;;;;19.40;11.10;;;;;;;-4.86;81.80;96774.27;106762;1275;25439;-66
2023/02/16 06:31:59;;;;;;;33.80;16.60;;;;;;;-4.67;82.38;96777.50;106641;1275;24068;-66
2023/02/16 06:34:28;;;;;;;28.50;15.70;;;;;;;-4.40;82.49;96770.98;106675;1275;22534;-66
2023/02/16 06:36:56;;;;;;;22.40;14.10;;;;;;;-4.17;81.93;96769.86;106750;1275;22600;-67
2023/02/16 06:39:24;;;;;;;22.60;13.50;;;;;;;-4.03;81.01;96770.64;106728;1275;22983;-67
2023/02/16 06:41:52;;;;;;;18.20;9.50;;;;;;;-4.02;80.56;96763.32;106803;1275;22543;-66
2023/02/16 06:44:20;;;;;;;6.10;3.40;;;;;;;-4.04;80.44;96764.05;106724;1275;25467;-66
2023/02/16 06:46:49;;;;;;;2.10;1.20;;;;;;;-4.07;80.55;96764.93;106678;1275;22543;-66
2023/02/16 06:49:19;;;;;;;12.20;7.60;;;;;;;-4.06;81.03;96767.06;106704;1275;25717;-66
2023/02/16 06:51:48;;;;;;;34.90;20.10;;;;;;;-3.95;81.48;96766.27;106644;1275;22607;-66
2023/02/16 06:54:17;;;;;;;34.20;19.30;;;;;;;-3.86;81.15;96763.68;106682;1275;25526;-67
2023/02/16 06:56:45;;;;;;;32.40;17.60;;;;;;;-3.83;81.35;96760.60;106544;1275;22523;-66
2023/02/16 06:59:14;;;;;;;32.10;17.70;;;;;;;-3.78;81.19;96758.45;106566;1275;24383;-66
2023/02/16 07:01:43;;;;;;;31.00;17.00;;;;;;;-3.71;81.58;96757.30;106593;1275;22786;-67
2023/02/16 07:04:12;;;;;;;29.20;15.30;;;;;;;-3.62;81.33;96761.02;106723;1275;25555;-66
2023/02/16 07:06:42;;;;;;;32.40;17.20;;;;;;;-3.59;81.36;96760.39;106728;1275;22633;-66
2023/02/16 07:09:10;;;;;;;29.50;16.00;;;;;;;-3.43;81.74;96761.07;106778;1275;24228;-66
2023/02/16 07:11:39;;;;;;;29.90;16.90;;;;;;;-3.29;81.48;96760.27;106660;1275;22776;-66
2023/02/16 07:14:08;;;;;;;31.40;17.00;;;;;;;-3.17;81.33;96761.36;106711;1275;25558;-67
2023/02/16 07:16:36;;;;;;;21.20;12.10;;;;;;;-3.06;80.87;96760.41;106612;1263;22527;-66
2023/02/16 07:19:05;;;;;;;20.50;11.50;;;;;;;-3.04;80.57;96758.96;106653;1275;22658;-66
2023/02/16 07:21:33;;;;;;;26.30;14.40;;;;;;;-2.97;80.72;96757.59;106583;1275;25392;-66
2023/02/16 07:24:02;;;;;;;31.30;16.60;;;;;;;-2.84;80.99;96753.30;106628;1275;25609;-67
2023/02/16 07:26:31;;;;;;;32.50;16.60;;;;;;;-2.69;81.07;96751.33;106825;1275;22630;-66
2023/02/16 07:28:59;;;;;;;24.70;13.80;;;;;;;-2.57;80.71;96749.48;106742;1275;23922;-67
2023/02/16 07:31:27;;;;;;;29.50;16.30;;;;;;;-2.49;80.40;96744.72;106574;1275;24258;-66
2023/02/16 07:33:55;;;;;;;22.80;13.00;;;;;;;-2.34;80.73;96739.79;106600;1275;24273;-66
2023/02/16 07:36:24;;;;;;;22.70;12.40;;;;;;;-2.16;80.41;96737.73;106631;1275;22520;-67
2023/02/16 07:38:53;;;;;;;17.80;10.90;;;;;;;-1.99;79.99;96733.35;106685;1275;24540;-66
2023/02/16 07:41:22;;;;;;;15.20;8.30;;;;;;;-1.86;79.31;96726.23;106771;1275;25300;-66
2023/02/16 07:43:50;;;;;;;17.50;10.10;;;;;;;-1.73;78.63;96720.96;106739;1275;22923;-66
2023/02/16 07:46:18;;;;;;;21.10;10.30;;;;;;;-1.61;78.52;96720.14;106672;1275;22532;-66
2023/02/16 07:48:50;;;;;;;21.10;11.40;;;;;;;-1.46;78.64;96721.69;106717;1275;22536;-67
2023/02/16 07:51:23;;;;;;;24.40;13.00;;;;;;;-1.31;78.37;96713.94;106774;1275;22605;-66
2023/02/16 07:53:52;;;;;;;;;;;;;;;-1.18;78.16;96708.29;106761;1275;22501;-66
2023/02/16 07:56:25;;;;;;;23.80;13.20;;;;;;;-1.07;78.04;96708.08;106686;1275;25353;-66
2023/02/16 07:58:59;;;;;;;24.40;13.60;;;;;;;-0.93;78.10;96705.92;106740;1275;22519;-66
2023/02/16 08:01:28;;;;;;;22.90;12.10;;;;;;;-0.76;77.90;96706.13;106654;1275;22539;-67
2023/02/16 08:03:57;;;;;;;27.90;16.30;;;;;;;-0.64;77.29;96698.73;107010;1275;22527;-66
2023/02/16 08:06:25;;;;;;;22.40;12.70;;;;;;;-0.51;77.26;96700.47;106760;1275;25856;-67
2023/02/16 08:08:56;;;;;;;18.50;9.80;;;;;;;-0.36;76.78;96698.46;106801;1275;22527;-67
2023/02/16 08:11:24;;;;;;;21.60;11.60;;;;;;;-0.24;76.31;96699.33;106717;1275;22552;-67
2023/02/16 08:13:53;;;;;;;33.30;17.50;;;;;;;-0.09;76.41;96695.44;106709;1275;24337;-66
2023/02/16 08:16:24;;;;;;;17.30;10.70;;;;;;;0.05;76.14;96694.09;106700;1275;24259;-66
2023/02/16 08:18:55;;;;;;;17.30;9.30;;;;;;;0.23;76.12;96694.95;106752;1275;22550;-67
2023/02/16 08:21:30;;;;;;;16.70;9.10;;;;;;;0.42;75.84;96696.20;106746;1275;23917;-67
2023/02/16 08:24:01;;;;;;;18.70;9.30;;;;;;;0.63;75.54;96695.98;106739;1275;25353;-67
2023/02/16 08:26:38;;;;;;;14.30;8.00;;;;;;;0.79;74.74;96692.40;106781;1275;25398;-69
2023/02/16 08:29:13;;;;;;;15.50;9.20;;;;;;;0.91;74.37;96688.48;106856;1275;24294;-69
2023/02/16 08:31:42;;;;;;;13.90;7.40;;;;;;;0.98;74.29;96682.88;106724;1275;24215;-68
2023/02/16 08:34:12;;;;;;;14.40;8.10;;;;;;;1.09;73.45;96679.63;106626;1275;25321;-68
2023/02/16 08:36:46;;;;;;;11.00;6.60;;;;;;;1.26;72.73;96675.67;107072;1275;23916;-68
2023/02/16 08:39:15;;;;;;;;;;;;;;;1.41;71.24;96677.77;106721;1275;22631;-69
2023/02/16 08:41:45;;;;;;;11.70;6.70;;;;;;;1.53;70.29;96678.17;106850;1263;25353;-69
2023/02/16 08:44:15;;;;;;;36.30;19.50;;;;;;;1.60;69.72;96676.52;106791;1275;22575;-68
2023/02/16 08:46:45;;;;;;;24.50;19.60;;;;;;;1.70;69.51;96675.25;106677;1275;22527;-69
2023/02/16 08:49:16;;;;;;;17.20;13.60;;;;;;;1.84;69.77;96674.70;106754;1275;22649;-69
2023/02/16 08:51:48;;;;;;;11.20;8.60;;;;;;;1.98;68.61;96667.84;106754;1275;22649;-69
2023/02/16 08:54:19;;;;;;;11.50;6.60;;;;;;;2.08;67.35;96671.12;106644;1275;24280;-69
2023/02/16 08:56:48;;;;;;;7.70;4.90;;;;;;;2.22;68.13;96671.04;106864;1274;25434;-69
2023/02/16 08:59:18;;;;;;;7.10;4.40;;;;;;;2.40;68.36;96665.36;106782;1275;24230;-69
2023/02/16 09:01:47;;;;;;;8.80;4.80;;;;;;;2.57;67.89;96666.20;106767;1275;25471;-68
2023/02/16 09:04:18;;;;;;;7.00;4.70;;;;;;;2.71;66.91;96664.17;106878;1275;22552;-69
2023/02/16 09:06:47;;;;;;;5.30;3.50;;;;;;;2.85;67.36;96666.13;106695;1275;24369;-69
2023/02/16 09:09:16;;;;;;;7.90;4.30;;;;;;;2.96;67.18;96659.84;106768;1275;22528;-69
2023/02/16 09:11:45;;;;;;;7.40;3.90;;;;;;;3.12;66.13;96662.69;106742;1275;25393;-69
2023/02/16 09:14:16;;;;;;;10.60;5.80;;;;;;;3.23;65.16;96661.10;106640;1275;22629;-69
2023/02/16 09:16:44;;;;;;;9.00;4.80;;;;;;;3.38;64.67;96659.58;106795;1275;22534;-69
2023/02/16 09:19:19;;;;;;;13.80;8.10;;;;;;;3.53;64.93;96660.48;106785;1275;25389;-69
2023/02/16 09:21:49;;;;;;;14.80;7.40;;;;;;;3.67;63.96;96658.23;106637;1275;22783;-69
2023/02/16 09:24:18;;;;;;;13.10;6.90;;;;;;;3.81;64.34;96662.41;106807;1275;25271;-69
2023/02/16 09:26:46;;;;;;;13.60;7.40;;;;;;;4.00;64.59;96660.58;106741;1275;22521;-69
2023/02/16 09:29:15;;;;;;;18.50;10.50;;;;;;;4.07;61.61;96659.56;106629;1275;22603;-69
2023/02/16 09:31:44;;;;;;;16.10;10.00;;;;;;;4.18;62.24;96657.00;106655;1275;22527;-69
2023/02/16 09:34:19;;;;;;;19.80;10.00;;;;;;;4.30;62.42;96657.14;106679;1275;24221;-69
2023/02/16 09:36:48;;;;;;;17.60;9.60;;;;;;;4.47;62.95;96656.98;106814;1275;24388;-69
2023/02/16 09:39:16;;;;;;;16.70;9.80;;;;;;;4.58;62.90;96656.02;106840;1275;24352;-68
2023/02/16 09:42:16;;;;;;;17.40;10.80;;;;;;;4.71;62.30;96650.02;106784;1275;22751;-69
2023/02/16 09:45:12;;;;;;;19.60;11.20;;;;;;;4.89;61.03;96650.73;106869;1275;22621;-70
2023/02/16 09:47:43;;;;;;;23.10;12.30;;;;;;;5.02;60.31;96650.45;106716;1275;22523;-69
2023/02/16 09:50:21;;;;;;;18.90;11.90;;;;;;;5.14;60.35;96651.39;106649;1275;24434;-69
2023/02/16 09:53:20;;;;;;;14.60;10.00;;;;;;;5.29;57.66;96651.33;106688;1275;26618;-69
2023/02/16 09:56:03;;;;;;;10.60;6.00;;;;;;;5.37;57.59;96652.36;106928;1275;25460;-69
2023/02/16 09:58:44;;;;;;;9.90;4.90;;;;;;;5.49;58.82;96647.16;106756;1275;25423;-69
2023/02/16 10:01:24;;;;;;;7.90;4.90;;;;;;;5.60;57.69;96652.23;106716;1275;22524;-69
2023/02/16 10:03:58;;;;;;;9.60;5.50;;;;;;;5.74;58.10;96648.46;106729;1275;22625;-69
2023/02/16 10:06:57;;;;;;;9.00;5.80;;;;;;;5.84;57.28;96647.93;106788;1275;25337;-69
2023/02/16 10:09:28;;;;;;;9.90;5.20;;;;;;;5.97;58.16;96648.18;106769;1275;24046;-69
2023/02/16 10:12:06;;;;;;;11.00;5.50;;;;;;;6.07;56.62;96639.77;106842;1275;23020;-69
2023/02/16 10:14:47;;;;;;;10.80;5.20;;;;;;;6.17;57.16;96634.54;106808;1275;25619;-69
2023/02/16 10:17:34;;;;;;;10.80;6.50;;;;;;;6.28;56.88;96634.52;106773;1275;22546;-69
2023/02/16 10:20:17;;;;;;;9.30;5.20;;;;;;;6.39;56.98;96629.25;107025;1275;24290;-69
2023/02/16 10:22:47;;;;;;;9.30;5.70;;;;;;;6.50;56.67;96627.14;106693;1275;24250;-69
2023/02/16 10:25:36;;;;;;;9.10;5.40;;;;;;;6.56;54.43;96619.71;106671;1275;25271;-69
2023/02/16 10:28:27;;;;;;;10.50;5.90;;;;;;;6.68;55.61;96617.77;106689;1275;24196;-69
2023/02/16 10:31:01;;;;;;;9.00;5.10;;;;;;;6.85;55.16;96613.95;106779;1275;24249;-67
2023/02/16 10:33:50;;;;;;;8.30;5.10;;;;;;;7.01;53.92;96612.40;106635;1275;25322;-67
2023/02/16 10:36:24;;;;;;;15.40;8.30;;;;;;;7.29;53.55;96607.46;106700;1275;25561;-67
2023/02/16 10:38:58;;;;;;;21.40;12.50;;;;;;;7.66;53.07;96599.58;106699;1275;25334;-67
2023/02/16 10:41:43;;;;;;;18.00;10.40;;;;;;;8.01;50.94;96594.95;106656;1275;24383;-67
2023/02/16 10:44:25;;;;;;;17.10;10.20;;;;;;;8.31;50.11;96590.62;106605;1254;24248;-67
2023/02/16 10:46:58;;;;;;;17.20;10.90;;;;;;;8.56;48.66;96587.98;106586;1275;25689;-67
2023/02/16 10:49:29;;;;;;;16.80;11.20;;;;;;;8.93;48.50;96586.39;106690;1275;22538;-67
2023/02/16 10:52:00;;;;;;;15.60;10.20;;;;;;;9.26;47.86;96584.56;106736;1275;22712;-68
2023/02/16 10:54:30;;;;;;;17.50;10.60;;;;;;;9.58;47.46;96580.05;106748;1275;25329;-68
2023/02/16 10:57:04;;;;;;;19.00;11.80;;;;;;;9.96;46.51;96575.67;106678;1270;22520;-68
2023/02/16 10:59:37;;;;;;;20.00;11.00;;;;;;;10.22;45.25;96569.14;106779;1275;22537;-68
2023/02/16 11:02:29;;;;;;;18.80;11.30;;;;;;;10.56;44.84;96568.57;106615;1275;25249;-67
2023/02/16 11:04:58;;;;;;;17.50;11.60;;;;;;;10.82;43.80;96561.44;106691;1275;22526;-69
2023/02/16 11:07:28;;;;;;;16.50;11.20;;;;;;;11.03;43.00;96559.77;106759;1275;22779;-68
2023/02/16 11:10:01;;;;;;;17.60;12.40;;;;;;;11.35;42.61;96557.99;106627;1275;24217;-68
2023/02/16 11:12:32;;;;;;;15.10;10.00;;;;;;;11.57;41.90;96551.16;106630;1275;24979;-68
2023/02/16 11:15:07;;;;;;;13.50;10.30;;;;;;;11.73;41.26;96552.45;106734;1275;22698;-68
2023/02/16 11:17:54;;;;;;;14.40;10.50;;;;;;;11.84;40.96;96552.55;106591;1275;22555;-68
2023/02/16 11:20:49;;;;;;;16.60;10.70;;;;;;;12.04;39.87;96547.46;106596;1275;25477;-68
2023/02/16 11:23:21;;;;;;;12.70;10.00;;;;;;;12.08;39.54;96544.24;106624;1275;25393;-68
2023/02/16 11:25:57;;;;;;;14.50;10.40;;;;;;;12.48;40.67;96544.38;106655;1275;22635;-68
2023/02/16 11:28:28;;;;;;;14.20;10.70;;;;;;;12.68;39.14;96547.33;106579;1275;22647;-68
2023/02/16 11:31:20;;;;;;;13.70;10.50;;;;;;;12.97;39.10;96537.08;106559;1275;24066;-67
2023/02/16 11:34:01;;;;;;;14.00;10.30;;;;;;;13.33;39.14;96533.64;106746;1275;25047;-68
2023/02/16 11:36:38;;;;;;;14.80;11.00;;;;;;;13.82;38.45;96524.75;106814;1275;25386;-68
2023/02/16 11:39:12;;;;;;;;;;;;;;;13.97;37.71;96522.73;106716;1275;24241;-68
2023/02/16 11:41:53;;;;;;;13.40;10.20;;;;;;;14.26;38.00;96517.96;106740;1275;22597;-68
2023/02/16 11:44:34;;;;;;;14.00;10.20;;;;;;;14.57;36.50;96514.95;106726;1275;25452;-67
2023/02/16 11:47:07;;;;;;;14.60;11.20;;;;;;;14.80;35.85;96517.67;106731;1275;22566;-69
2023/02/16 11:49:39;;;;;;;14.00;10.30;;;;;;;14.89;35.48;96513.41;106782;1275;22553;-68
2023/02/16 11:52:36;;;;;;;14.00;10.50;;;;;;;14.94;35.69;96511.19;106699;1275;24224;-68
2023/02/16 11:55:34;;;;;;;13.90;11.00;;;;;;;15.33;34.95;96500.05;106497;1275;24370;-68
2023/02/16 11:58:20;;;;;;;15.70;11.00;;;;;;;15.63;35.38;96490.14;106824;1275;22531;-68
2023/02/16 12:01:22;;;;;;;16.00;12.10;;;;;;;16.08;34.06;96491.86;106603;1275;22632;-68
2023/02/16 12:04:28;;;;;;;15.50;11.90;;;;;;;16.12;33.43;96489.45;106733;1275;22646;-68
2023/02/16 12:06:56;;;;;;;16.40;12.50;;;;;;;15.81;34.02;96485.64;106712;1275;25431;-68
2023/02/16 12:09:40;;;;;;;18.70;13.20;;;;;;;15.64;33.36;96485.86;106719;1275;25383;-69
2023/02/16 12:12:30;;;;;;;17.20;12.70;;;;;;;15.29;33.79;96487.73;106683;1274;23005;-68
2023/02/16 12:15:14;;;;;;;16.40;12.70;;;;;;;15.67;33.83;96481.36;106647;1274;22546;-68
2023/02/16 12:17:57;;;;;;;18.60;13.60;;;;;;;15.45;33.48;96478.48;106819;1274;22534;-68
2023/02/16 12:20:38;;;;;;;15.10;12.00;;;;;;;15.69;33.93;96476.54;106735;1274;25396;-68
2023/02/16 12:23:17;;;;;;;14.60;11.40;;;;;;;16.22;33.83;96475.52;106780;1274;22520;-68
2023/02/16 12:26:07;;;;;;;16.20;13.30;;;;;;;16.70;32.68;96470.85;106673;1274;22528;-70
2023/02/16 12:28:54;;;;;;;15.80;12.40;;;;;;;16.51;32.35;96470.66;106757;1274;22531;-68